sensor_id;sensor_type;location;lat;lon;timestamp;P1;durP1;ratioP1;P2;durP2;ratioP2
56517;SDS011;42419;48.760;2.322;2022-07-30T00:01:11;2.47;;;2.27;;
56517;SDS011;42419;48.760;2.322;2022-07-30T00:03:36;2.17;;;1.90;;
56517;SDS011;42419;48.760;2.322;2022-07-30T00:06:02;3.67;;;2.47;;
56517;SDS011;42419;48.760;2.322;2022-07-30T00:08:27;2.67;;;2.47;;
56517;SDS011;42419;48.760;2.322;2022-07-30T00:10:53;2.67;;;1.97;;
56517;SDS011;42419;48.760;2.322;2022-07-30T00:13:18;2.43;;;2.23;;
56517;SDS011;42419;48.760;2.322;2022-07-30T00:15:44;2.93;;;2.17;;
56517;SDS011;42419;48.760;2.322;2022-07-30T00:18:09;2.20;;;2.00;;
56517;SDS011;42419;48.760;2.322;2022-07-30T00:20:34;2.23;;;2.03;;
56517;SDS011;42419;48.760;2.322;2022-07-30T00:23:03;2.70;;;2.50;;
56517;SDS011;42419;48.760;2.322;2022-07-30T00:25:30;2.30;;;2.10;;
56517;SDS011;42419;48.760;2.322;2022-07-30T00:27:55;2.20;;;2.00;;
56517;SDS011;42419;48.760;2.322;2022-07-30T00:30:21;2.43;;;2.23;;
56517;SDS011;42419;48.760;2.322;2022-07-30T00:32:46;2.33;;;1.90;;
56517;SDS011;42419;48.760;2.322;2022-07-30T00:35:12;2.63;;;1.70;;
56517;SDS011;42419;48.760;2.322;2022-07-30T00:37:37;2.80;;;1.70;;
56517;SDS011;42419;48.760;2.322;2022-07-30T00:40:04;2.47;;;1.83;;
56517;SDS011;42419;48.760;2.322;2022-07-30T00:42:40;2.17;;;1.60;;
56517;SDS011;42419;48.760;2.322;2022-07-30T00:45:08;2.13;;;1.93;;
56517;SDS011;42419;48.760;2.322;2022-07-30T00:47:34;2.43;;;1.53;;
56517;SDS011;42419;48.760;2.322;2022-07-30T00:50:00;1.73;;;1.50;;
56517;SDS011;42419;48.760;2.322;2022-07-30T00:52:28;1.63;;;1.53;;
56517;SDS011;42419;48.760;2.322;2022-07-30T00:54:55;1.70;;;1.60;;
56517;SDS011;42419;48.760;2.322;2022-07-30T00:57:20;2.00;;;1.80;;
56517;SDS011;42419;48.760;2.322;2022-07-30T00:59:46;2.40;;;1.63;;
56517;SDS011;42419;48.760;2.322;2022-07-30T01:02:11;1.97;;;1.87;;
56517;SDS011;42419;48.760;2.322;2022-07-30T01:04:37;1.60;;;1.50;;
56517;SDS011;42419;48.760;2.322;2022-07-30T01:07:02;2.20;;;1.50;;
56517;SDS011;42419;48.760;2.322;2022-07-30T01:09:27;1.60;;;1.50;;
56517;SDS011;42419;48.760;2.322;2022-07-30T01:11:52;1.80;;;1.70;;
56517;SDS011;42419;48.760;2.322;2022-07-30T01:14:19;3.07;;;2.13;;
56517;SDS011;42419;48.760;2.322;2022-07-30T01:16:44;2.13;;;1.93;;
56517;SDS011;42419;48.760;2.322;2022-07-30T01:19:12;2.03;;;1.87;;
56517;SDS011;42419;48.760;2.322;2022-07-30T01:22:05;3.23;;;2.07;;
56517;SDS011;42419;48.760;2.322;2022-07-30T01:24:37;2.10;;;1.83;;
56517;SDS011;42419;48.760;2.322;2022-07-30T01:27:06;1.90;;;1.70;;
56517;SDS011;42419;48.760;2.322;2022-07-30T01:29:32;1.60;;;1.50;;
56517;SDS011;42419;48.760;2.322;2022-07-30T01:32:00;2.10;;;1.80;;
56517;SDS011;42419;48.760;2.322;2022-07-30T01:34:28;2.27;;;1.70;;
56517;SDS011;42419;48.760;2.322;2022-07-30T01:36:55;2.23;;;1.97;;
56517;SDS011;42419;48.760;2.322;2022-07-30T01:39:24;2.13;;;1.73;;
56517;SDS011;42419;48.760;2.322;2022-07-30T01:41:50;2.30;;;2.10;;
56517;SDS011;42419;48.760;2.322;2022-07-30T01:44:18;1.77;;;1.63;;
56517;SDS011;42419;48.760;2.322;2022-07-30T01:46:45;2.20;;;2.00;;
56517;SDS011;42419;48.760;2.322;2022-07-30T01:49:11;1.73;;;1.53;;
56517;SDS011;42419;48.760;2.322;2022-07-30T01:51:37;1.83;;;1.73;;
56517;SDS011;42419;48.760;2.322;2022-07-30T01:54:05;2.20;;;2.00;;
56517;SDS011;42419;48.760;2.322;2022-07-30T01:56:33;2.50;;;1.80;;
56517;SDS011;42419;48.760;2.322;2022-07-30T01:59:01;1.70;;;1.60;;
56517;SDS011;42419;48.760;2.322;2022-07-30T02:01:27;2.00;;;1.80;;
56517;SDS011;42419;48.760;2.322;2022-07-30T02:03:52;2.13;;;1.93;;
56517;SDS011;42419;48.760;2.322;2022-07-30T02:06:22;2.07;;;1.80;;
56517;SDS011;42419;48.760;2.322;2022-07-30T02:08:54;2.20;;;1.80;;
56517;SDS011;42419;48.760;2.322;2022-07-30T02:11:23;2.40;;;1.63;;
56517;SDS011;42419;48.760;2.322;2022-07-30T02:14:10;2.00;;;1.60;;
56517;SDS011;42419;48.760;2.322;2022-07-30T02:16:48;1.80;;;1.70;;
56517;SDS011;42419;48.760;2.322;2022-07-30T02:19:17;1.70;;;1.60;;
56517;SDS011;42419;48.760;2.322;2022-07-30T02:21:48;2.37;;;2.00;;
56517;SDS011;42419;48.760;2.322;2022-07-30T02:24:21;2.53;;;1.83;;
56517;SDS011;42419;48.760;2.322;2022-07-30T02:26:54;2.43;;;2.00;;
56517;SDS011;42419;48.760;2.322;2022-07-30T02:29:22;2.53;;;2.20;;
56517;SDS011;42419;48.760;2.322;2022-07-30T02:31:48;1.87;;;1.77;;
56517;SDS011;42419;48.760;2.322;2022-07-30T02:34:15;2.40;;;2.07;;
56517;SDS011;42419;48.760;2.322;2022-07-30T02:36:45;2.90;;;1.90;;
56517;SDS011;42419;48.760;2.322;2022-07-30T02:39:12;2.63;;;2.23;;
56517;SDS011;42419;48.760;2.322;2022-07-30T02:41:38;1.80;;;1.70;;
56517;SDS011;42419;48.760;2.322;2022-07-30T02:44:05;2.10;;;1.87;;
56517;SDS011;42419;48.760;2.322;2022-07-30T02:46:31;2.10;;;1.80;;
56517;SDS011;42419;48.760;2.322;2022-07-30T02:48:58;1.83;;;1.67;;
56517;SDS011;42419;48.760;2.322;2022-07-30T02:51:25;3.10;;;2.07;;
56517;SDS011;42419;48.760;2.322;2022-07-30T02:53:52;2.40;;;2.00;;
56517;SDS011;42419;48.760;2.322;2022-07-30T02:56:20;2.23;;;1.80;;
56517;SDS011;42419;48.760;2.322;2022-07-30T02:58:46;1.90;;;1.80;;
56517;SDS011;42419;48.760;2.322;2022-07-30T03:01:14;2.50;;;2.07;;
56517;SDS011;42419;48.760;2.322;2022-07-30T03:03:42;2.00;;;1.80;;
56517;SDS011;42419;48.760;2.322;2022-07-30T03:06:09;2.60;;;2.40;;
56517;SDS011;42419;48.760;2.322;2022-07-30T03:08:37;2.40;;;2.10;;
56517;SDS011;42419;48.760;2.322;2022-07-30T03:11:05;3.23;;;2.00;;
56517;SDS011;42419;48.760;2.322;2022-07-30T03:13:32;2.60;;;2.10;;
56517;SDS011;42419;48.760;2.322;2022-07-30T03:15:57;2.60;;;1.93;;
56517;SDS011;42419;48.760;2.322;2022-07-30T03:18:26;2.70;;;2.10;;
56517;SDS011;42419;48.760;2.322;2022-07-30T03:20:55;2.63;;;2.10;;
56517;SDS011;42419;48.760;2.322;2022-07-30T03:23:23;2.17;;;1.97;;
56517;SDS011;42419;48.760;2.322;2022-07-30T03:25:56;2.30;;;2.10;;
56517;SDS011;42419;48.760;2.322;2022-07-30T03:28:25;2.10;;;1.90;;
56517;SDS011;42419;48.760;2.322;2022-07-30T03:30:55;1.90;;;1.70;;
56517;SDS011;42419;48.760;2.322;2022-07-30T03:33:21;3.40;;;2.27;;
56517;SDS011;42419;48.760;2.322;2022-07-30T03:35:48;2.57;;;1.83;;
56517;SDS011;42419;48.760;2.322;2022-07-30T03:38:15;2.20;;;2.00;;
56517;SDS011;42419;48.760;2.322;2022-07-30T03:40:42;2.60;;;2.33;;
56517;SDS011;42419;48.760;2.322;2022-07-30T03:43:08;2.20;;;2.00;;
56517;SDS011;42419;48.760;2.322;2022-07-30T03:45:35;2.20;;;2.00;;
56517;SDS011;42419;48.760;2.322;2022-07-30T03:48:02;2.93;;;2.13;;
56517;SDS011;42419;48.760;2.322;2022-07-30T03:50:29;4.87;;;2.30;;
56517;SDS011;42419;48.760;2.322;2022-07-30T03:52:55;2.40;;;2.20;;
56517;SDS011;42419;48.760;2.322;2022-07-30T03:55:21;2.60;;;2.10;;
56517;SDS011;42419;48.760;2.322;2022-07-30T03:57:47;3.83;;;2.10;;
56517;SDS011;42419;48.760;2.322;2022-07-30T04:00:13;2.40;;;1.90;;
56517;SDS011;42419;48.760;2.322;2022-07-30T04:02:42;3.07;;;2.70;;
56517;SDS011;42419;48.760;2.322;2022-07-30T04:05:10;2.23;;;2.03;;
56517;SDS011;42419;48.760;2.322;2022-07-30T04:07:36;4.87;;;2.60;;
56517;SDS011;42419;48.760;2.322;2022-07-30T04:10:02;2.63;;;2.43;;
56517;SDS011;42419;48.760;2.322;2022-07-30T04:12:27;3.70;;;2.33;;
56517;SDS011;42419;48.760;2.322;2022-07-30T04:14:53;2.30;;;2.10;;
56517;SDS011;42419;48.760;2.322;2022-07-30T04:17:21;2.60;;;2.07;;
56517;SDS011;42419;48.760;2.322;2022-07-30T04:20:02;2.27;;;2.07;;
56517;SDS011;42419;48.760;2.322;2022-07-30T04:22:36;3.60;;;2.17;;
56517;SDS011;42419;48.760;2.322;2022-07-30T04:25:04;2.73;;;2.30;;
56517;SDS011;42419;48.760;2.322;2022-07-30T04:27:31;2.30;;;2.10;;
56517;SDS011;42419;48.760;2.322;2022-07-30T04:29:57;2.73;;;2.30;;
56517;SDS011;42419;48.760;2.322;2022-07-30T04:32:23;2.50;;;2.30;;
56517;SDS011;42419;48.760;2.322;2022-07-30T04:34:50;2.80;;;2.60;;
56517;SDS011;42419;48.760;2.322;2022-07-30T04:37:17;2.43;;;2.23;;
56517;SDS011;42419;48.760;2.322;2022-07-30T04:39:44;4.07;;;2.70;;
56517;SDS011;42419;48.760;2.322;2022-07-30T04:42:09;3.90;;;2.20;;
56517;SDS011;42419;48.760;2.322;2022-07-30T04:44:35;2.33;;;2.13;;
56517;SDS011;42419;48.760;2.322;2022-07-30T04:47:01;2.40;;;2.20;;
56517;SDS011;42419;48.760;2.322;2022-07-30T04:49:27;5.37;;;2.80;;
56517;SDS011;42419;48.760;2.322;2022-07-30T04:51:53;2.87;;;2.40;;
56517;SDS011;42419;48.760;2.322;2022-07-30T04:54:20;4.20;;;2.33;;
56517;SDS011;42419;48.760;2.322;2022-07-30T04:56:48;2.50;;;2.30;;
56517;SDS011;42419;48.760;2.322;2022-07-30T04:59:15;3.27;;;2.60;;
56517;SDS011;42419;48.760;2.322;2022-07-30T05:01:41;2.07;;;1.90;;
56517;SDS011;42419;48.760;2.322;2022-07-30T05:04:10;3.00;;;2.40;;
56517;SDS011;42419;48.760;2.322;2022-07-30T05:06:37;5.20;;;2.70;;
56517;SDS011;42419;48.760;2.322;2022-07-30T05:09:03;2.40;;;2.20;;
56517;SDS011;42419;48.760;2.322;2022-07-30T05:11:33;3.90;;;2.80;;
56517;SDS011;42419;48.760;2.322;2022-07-30T05:13:59;2.50;;;2.07;;
56517;SDS011;42419;48.760;2.322;2022-07-30T05:16:24;2.90;;;2.30;;
56517;SDS011;42419;48.760;2.322;2022-07-30T05:18:50;2.73;;;2.30;;
56517;SDS011;42419;48.760;2.322;2022-07-30T05:21:15;2.40;;;2.20;;
56517;SDS011;42419;48.760;2.322;2022-07-30T05:23:41;2.07;;;1.87;;
56517;SDS011;42419;48.760;2.322;2022-07-30T05:26:06;2.23;;;2.03;;
56517;SDS011;42419;48.760;2.322;2022-07-30T05:28:32;1.67;;;1.57;;
56517;SDS011;42419;48.760;2.322;2022-07-30T05:30:57;2.13;;;1.93;;
56517;SDS011;42419;48.760;2.322;2022-07-30T05:33:22;1.60;;;1.50;;
56517;SDS011;42419;48.760;2.322;2022-07-30T05:35:48;2.13;;;1.80;;
56517;SDS011;42419;48.760;2.322;2022-07-30T05:38:14;1.90;;;1.70;;
56517;SDS011;42419;48.760;2.322;2022-07-30T05:40:41;1.90;;;1.70;;
56517;SDS011;42419;48.760;2.322;2022-07-30T05:43:06;2.07;;;1.90;;
56517;SDS011;42419;48.760;2.322;2022-07-30T05:45:32;2.53;;;2.33;;
56517;SDS011;42419;48.760;2.322;2022-07-30T05:47:57;1.90;;;1.80;;
56517;SDS011;42419;48.760;2.322;2022-07-30T05:50:22;2.57;;;2.13;;
56517;SDS011;42419;48.760;2.322;2022-07-30T05:52:48;2.23;;;2.03;;
56517;SDS011;42419;48.760;2.322;2022-07-30T05:55:13;2.20;;;2.00;;
56517;SDS011;42419;48.760;2.322;2022-07-30T05:57:38;2.30;;;1.70;;
56517;SDS011;42419;48.760;2.322;2022-07-30T06:00:06;2.40;;;2.20;;
56517;SDS011;42419;48.760;2.322;2022-07-30T06:02:33;2.40;;;2.20;;
56517;SDS011;42419;48.760;2.322;2022-07-30T06:04:59;2.60;;;1.70;;
56517;SDS011;42419;48.760;2.322;2022-07-30T06:07:24;1.83;;;1.60;;
56517;SDS011;42419;48.760;2.322;2022-07-30T06:09:50;2.30;;;2.10;;
56517;SDS011;42419;48.760;2.322;2022-07-30T06:12:16;2.80;;;2.60;;
56517;SDS011;42419;48.760;2.322;2022-07-30T06:14:41;2.97;;;2.73;;
56517;SDS011;42419;48.760;2.322;2022-07-30T06:17:07;2.73;;;2.50;;
56517;SDS011;42419;48.760;2.322;2022-07-30T06:19:32;2.60;;;2.40;;
56517;SDS011;42419;48.760;2.322;2022-07-30T06:21:57;2.60;;;2.40;;
56517;SDS011;42419;48.760;2.322;2022-07-30T06:24:23;3.80;;;3.33;;
56517;SDS011;42419;48.760;2.322;2022-07-30T06:26:48;3.50;;;3.20;;
56517;SDS011;42419;48.760;2.322;2022-07-30T06:29:13;3.13;;;2.87;;
56517;SDS011;42419;48.760;2.322;2022-07-30T06:31:39;3.63;;;3.33;;
56517;SDS011;42419;48.760;2.322;2022-07-30T06:34:05;3.33;;;3.03;;
56517;SDS011;42419;48.760;2.322;2022-07-30T06:36:31;3.17;;;2.87;;
56517;SDS011;42419;48.760;2.322;2022-07-30T06:38:56;3.80;;;2.87;;
56517;SDS011;42419;48.760;2.322;2022-07-30T06:41:21;3.07;;;2.80;;
56517;SDS011;42419;48.760;2.322;2022-07-30T06:43:47;2.87;;;2.63;;
56517;SDS011;42419;48.760;2.322;2022-07-30T06:46:12;2.70;;;2.50;;
56517;SDS011;42419;48.760;2.322;2022-07-30T06:48:37;2.83;;;2.30;;
56517;SDS011;42419;48.760;2.322;2022-07-30T06:51:03;2.27;;;2.07;;
56517;SDS011;42419;48.760;2.322;2022-07-30T06:53:29;2.77;;;2.57;;
56517;SDS011;42419;48.760;2.322;2022-07-30T06:55:54;3.33;;;2.73;;
56517;SDS011;42419;48.760;2.322;2022-07-30T06:58:19;2.33;;;2.13;;
56517;SDS011;42419;48.760;2.322;2022-07-30T07:00:45;2.67;;;2.43;;
56517;SDS011;42419;48.760;2.322;2022-07-30T07:03:10;2.00;;;1.90;;
56517;SDS011;42419;48.760;2.322;2022-07-30T07:05:36;2.60;;;2.40;;
56517;SDS011;42419;48.760;2.322;2022-07-30T07:08:01;3.30;;;2.40;;
56517;SDS011;42419;48.760;2.322;2022-07-30T07:10:27;2.50;;;2.30;;
56517;SDS011;42419;48.760;2.322;2022-07-30T07:12:52;2.40;;;2.20;;
56517;SDS011;42419;48.760;2.322;2022-07-30T07:15:18;2.87;;;1.97;;
56517;SDS011;42419;48.760;2.322;2022-07-30T07:17:44;2.30;;;2.10;;
56517;SDS011;42419;48.760;2.322;2022-07-30T07:20:10;2.40;;;2.20;;
56517;SDS011;42419;48.760;2.322;2022-07-30T07:22:35;2.57;;;2.37;;
56517;SDS011;42419;48.760;2.322;2022-07-30T07:25:01;2.43;;;2.23;;
56517;SDS011;42419;48.760;2.322;2022-07-30T07:27:26;2.27;;;2.07;;
56517;SDS011;42419;48.760;2.322;2022-07-30T07:29:52;2.00;;;1.90;;
56517;SDS011;42419;48.760;2.322;2022-07-30T07:32:17;2.33;;;2.10;;
56517;SDS011;42419;48.760;2.322;2022-07-30T07:34:42;1.87;;;1.73;;
56517;SDS011;42419;48.760;2.322;2022-07-30T07:37:08;2.23;;;2.03;;
56517;SDS011;42419;48.760;2.322;2022-07-30T07:39:33;2.10;;;2.00;;
56517;SDS011;42419;48.760;2.322;2022-07-30T07:41:58;2.53;;;2.00;;
56517;SDS011;42419;48.760;2.322;2022-07-30T07:44:24;2.70;;;2.10;;
56517;SDS011;42419;48.760;2.322;2022-07-30T07:46:49;2.37;;;2.17;;
56517;SDS011;42419;48.760;2.322;2022-07-30T07:49:14;1.70;;;1.60;;
56517;SDS011;42419;48.760;2.322;2022-07-30T07:51:40;2.00;;;1.90;;
56517;SDS011;42419;48.760;2.322;2022-07-30T07:54:05;2.20;;;2.00;;
56517;SDS011;42419;48.760;2.322;2022-07-30T07:56:30;1.90;;;1.80;;
56517;SDS011;42419;48.760;2.322;2022-07-30T07:58:56;1.97;;;1.77;;
56517;SDS011;42419;48.760;2.322;2022-07-30T08:01:21;2.03;;;1.90;;
56517;SDS011;42419;48.760;2.322;2022-07-30T08:03:47;2.03;;;1.80;;
56517;SDS011;42419;48.760;2.322;2022-07-30T08:06:12;3.30;;;2.10;;
56517;SDS011;42419;48.760;2.322;2022-07-30T08:08:38;1.83;;;1.73;;
56517;SDS011;42419;48.760;2.322;2022-07-30T08:11:04;1.60;;;1.50;;
56517;SDS011;42419;48.760;2.322;2022-07-30T08:13:30;1.90;;;1.80;;
56517;SDS011;42419;48.760;2.322;2022-07-30T08:15:56;1.80;;;1.70;;
56517;SDS011;42419;48.760;2.322;2022-07-30T08:18:22;2.00;;;1.80;;
56517;SDS011;42419;48.760;2.322;2022-07-30T08:20:48;2.00;;;1.77;;
56517;SDS011;42419;48.760;2.322;2022-07-30T08:23:17;2.17;;;1.97;;
56517;SDS011;42419;48.760;2.322;2022-07-30T08:25:43;2.57;;;2.00;;
56517;SDS011;42419;48.760;2.322;2022-07-30T08:28:09;2.47;;;2.10;;
56517;SDS011;42419;48.760;2.322;2022-07-30T08:30:34;2.20;;;2.00;;
56517;SDS011;42419;48.760;2.322;2022-07-30T08:33:00;2.17;;;2.00;;
56517;SDS011;42419;48.760;2.322;2022-07-30T08:35:25;1.90;;;1.77;;
56517;SDS011;42419;48.760;2.322;2022-07-30T08:37:50;2.40;;;2.20;;
56517;SDS011;42419;48.760;2.322;2022-07-30T08:40:19;2.00;;;1.80;;
56517;SDS011;42419;48.760;2.322;2022-07-30T08:42:44;2.20;;;2.00;;
56517;SDS011;42419;48.760;2.322;2022-07-30T08:45:11;2.10;;;1.90;;
56517;SDS011;42419;48.760;2.322;2022-07-30T08:47:37;2.50;;;2.30;;
56517;SDS011;42419;48.760;2.322;2022-07-30T08:50:05;2.10;;;1.90;;
56517;SDS011;42419;48.760;2.322;2022-07-30T08:52:33;2.47;;;2.00;;
56517;SDS011;42419;48.760;2.322;2022-07-30T08:55:00;2.30;;;2.10;;
56517;SDS011;42419;48.760;2.322;2022-07-30T08:57:30;2.40;;;2.20;;
56517;SDS011;42419;48.760;2.322;2022-07-30T08:59:57;2.60;;;2.13;;
56517;SDS011;42419;48.760;2.322;2022-07-30T09:02:22;2.00;;;1.80;;
56517;SDS011;42419;48.760;2.322;2022-07-30T09:04:48;2.37;;;2.17;;
56517;SDS011;42419;48.760;2.322;2022-07-30T09:07:14;2.40;;;2.20;;
56517;SDS011;42419;48.760;2.322;2022-07-30T09:09:39;2.10;;;1.90;;
56517;SDS011;42419;48.760;2.322;2022-07-30T09:12:30;2.00;;;1.80;;
56517;SDS011;42419;48.760;2.322;2022-07-30T09:15:12;1.90;;;1.80;;
56517;SDS011;42419;48.760;2.322;2022-07-30T09:17:49;1.80;;;1.70;;
56517;SDS011;42419;48.760;2.322;2022-07-30T09:20:20;1.73;;;1.63;;
56517;SDS011;42419;48.760;2.322;2022-07-30T09:22:48;3.10;;;1.70;;
56517;SDS011;42419;48.760;2.322;2022-07-30T09:25:17;1.80;;;1.50;;
56517;SDS011;42419;48.760;2.322;2022-07-30T09:27:57;2.03;;;1.83;;
56517;SDS011;42419;48.760;2.322;2022-07-30T09:30:22;1.60;;;1.50;;
56517;SDS011;42419;48.760;2.322;2022-07-30T09:32:49;2.07;;;1.60;;
56517;SDS011;42419;48.760;2.322;2022-07-30T09:35:16;1.80;;;1.70;;
56517;SDS011;42419;48.760;2.322;2022-07-30T09:37:42;2.03;;;1.60;;
56517;SDS011;42419;48.760;2.322;2022-07-30T09:40:12;1.70;;;1.60;;
56517;SDS011;42419;48.760;2.322;2022-07-30T09:42:42;2.20;;;2.00;;
56517;SDS011;42419;48.760;2.322;2022-07-30T09:45:09;3.20;;;1.73;;
56517;SDS011;42419;48.760;2.322;2022-07-30T09:47:39;1.73;;;1.63;;
56517;SDS011;42419;48.760;2.322;2022-07-30T09:50:10;1.80;;;1.60;;
56517;SDS011;42419;48.760;2.322;2022-07-30T09:52:41;2.37;;;2.17;;
56517;SDS011;42419;48.760;2.322;2022-07-30T09:55:08;5.43;;;2.20;;
56517;SDS011;42419;48.760;2.322;2022-07-30T09:57:33;4.87;;;1.93;;
56517;SDS011;42419;48.760;2.322;2022-07-30T10:00:16;2.53;;;2.33;;
56517;SDS011;42419;48.760;2.322;2022-07-30T10:02:43;3.00;;;2.00;;
56517;SDS011;42419;48.760;2.322;2022-07-30T10:07:35;2.50;;;2.10;;
56517;SDS011;42419;48.760;2.322;2022-07-30T10:10:00;2.30;;;2.07;;
56517;SDS011;42419;48.760;2.322;2022-07-30T10:12:26;2.07;;;1.80;;
56517;SDS011;42419;48.760;2.322;2022-07-30T10:14:52;2.33;;;1.60;;
56517;SDS011;42419;48.760;2.322;2022-07-30T10:17:21;2.57;;;2.03;;
56517;SDS011;42419;48.760;2.322;2022-07-30T10:19:46;2.93;;;1.93;;
56517;SDS011;42419;48.760;2.322;2022-07-30T10:22:12;2.10;;;1.90;;
56517;SDS011;42419;48.760;2.322;2022-07-30T10:24:38;1.43;;;1.23;;
56517;SDS011;42419;48.760;2.322;2022-07-30T10:27:04;1.90;;;1.80;;
56517;SDS011;42419;48.760;2.322;2022-07-30T10:29:32;2.07;;;1.57;;
56517;SDS011;42419;48.760;2.322;2022-07-30T10:32:01;1.90;;;1.70;;
56517;SDS011;42419;48.760;2.322;2022-07-30T10:34:26;2.90;;;1.90;;
56517;SDS011;42419;48.760;2.322;2022-07-30T10:36:54;2.03;;;1.67;;
56517;SDS011;42419;48.760;2.322;2022-07-30T10:39:28;2.60;;;1.80;;
56517;SDS011;42419;48.760;2.322;2022-07-30T10:45:19;2.00;;;1.47;;
56517;SDS011;42419;48.760;2.322;2022-07-30T10:47:52;2.13;;;1.83;;
56517;SDS011;42419;48.760;2.322;2022-07-30T10:50:20;2.60;;;2.03;;
56517;SDS011;42419;48.760;2.322;2022-07-30T10:53:00;1.60;;;1.40;;
56517;SDS011;42419;48.760;2.322;2022-07-30T10:55:29;2.50;;;2.03;;
56517;SDS011;42419;48.760;2.322;2022-07-30T10:58:01;2.27;;;1.77;;
56517;SDS011;42419;48.760;2.322;2022-07-30T11:05:42;1.93;;;1.67;;
56517;SDS011;42419;48.760;2.322;2022-07-30T11:10:53;3.07;;;1.97;;
56517;SDS011;42419;48.760;2.322;2022-07-30T11:13:47;2.10;;;1.90;;
56517;SDS011;42419;48.760;2.322;2022-07-30T11:16:23;2.00;;;1.80;;
56517;SDS011;42419;48.760;2.322;2022-07-30T11:19:10;1.90;;;1.60;;
56517;SDS011;42419;48.760;2.322;2022-07-30T11:21:45;2.53;;;1.80;;
56517;SDS011;42419;48.760;2.322;2022-07-30T11:29:58;2.50;;;1.93;;
56517;SDS011;42419;48.760;2.322;2022-07-30T11:43:18;1.90;;;1.80;;
56517;SDS011;42419;48.760;2.322;2022-07-30T11:45:47;1.80;;;1.70;;
56517;SDS011;42419;48.760;2.322;2022-07-30T11:48:15;1.77;;;1.67;;
56517;SDS011;42419;48.760;2.322;2022-07-30T11:50:42;1.60;;;1.50;;
56517;SDS011;42419;48.760;2.322;2022-07-30T11:53:10;1.63;;;1.53;;
56517;SDS011;42419;48.760;2.322;2022-07-30T11:55:40;2.00;;;1.60;;
56517;SDS011;42419;48.760;2.322;2022-07-30T11:58:08;1.63;;;1.47;;
56517;SDS011;42419;48.760;2.322;2022-07-30T12:00:45;2.10;;;1.90;;
56517;SDS011;42419;48.760;2.322;2022-07-30T12:03:21;2.40;;;2.20;;
56517;SDS011;42419;48.760;2.322;2022-07-30T12:05:48;2.33;;;1.90;;
56517;SDS011;42419;48.760;2.322;2022-07-30T12:08:14;2.17;;;1.80;;
56517;SDS011;42419;48.760;2.322;2022-07-30T12:10:40;2.00;;;1.70;;
56517;SDS011;42419;48.760;2.322;2022-07-30T12:15:38;1.70;;;1.50;;
56517;SDS011;42419;48.760;2.322;2022-07-30T12:18:07;1.70;;;1.57;;
56517;SDS011;42419;48.760;2.322;2022-07-30T12:20:36;2.23;;;1.80;;
56517;SDS011;42419;48.760;2.322;2022-07-30T12:23:02;3.40;;;1.60;;
56517;SDS011;42419;48.760;2.322;2022-07-30T12:25:36;2.20;;;2.00;;
56517;SDS011;42419;48.760;2.322;2022-07-30T12:28:03;1.70;;;1.60;;
56517;SDS011;42419;48.760;2.322;2022-07-30T12:30:28;1.80;;;1.50;;
56517;SDS011;42419;48.760;2.322;2022-07-30T12:32:54;2.10;;;1.90;;
56517;SDS011;42419;48.760;2.322;2022-07-30T12:38:12;1.80;;;1.70;;
56517;SDS011;42419;48.760;2.322;2022-07-30T12:40:51;3.93;;;1.60;;
56517;SDS011;42419;48.760;2.322;2022-07-30T12:43:17;1.80;;;1.70;;
56517;SDS011;42419;48.760;2.322;2022-07-30T12:45:42;2.27;;;1.90;;
56517;SDS011;42419;48.760;2.322;2022-07-30T12:48:11;2.10;;;1.90;;
56517;SDS011;42419;48.760;2.322;2022-07-30T12:50:38;2.03;;;1.83;;
56517;SDS011;42419;48.760;2.322;2022-07-30T12:53:05;2.30;;;2.10;;
56517;SDS011;42419;48.760;2.322;2022-07-30T12:55:34;1.90;;;1.60;;
56517;SDS011;42419;48.760;2.322;2022-07-30T12:58:03;2.37;;;1.77;;
56517;SDS011;42419;48.760;2.322;2022-07-30T13:06:10;1.60;;;1.50;;
56517;SDS011;42419;48.760;2.322;2022-07-30T13:11:19;1.50;;;1.40;;
56517;SDS011;42419;48.760;2.322;2022-07-30T13:13:46;2.00;;;1.90;;
56517;SDS011;42419;48.760;2.322;2022-07-30T13:16:12;2.53;;;1.87;;
56517;SDS011;42419;48.760;2.322;2022-07-30T13:18:37;2.40;;;1.90;;
56517;SDS011;42419;48.760;2.322;2022-07-30T13:21:04;2.37;;;2.10;;
56517;SDS011;42419;48.760;2.322;2022-07-30T13:23:33;2.03;;;1.83;;
56517;SDS011;42419;48.760;2.322;2022-07-30T13:25:59;1.67;;;1.57;;
56517;SDS011;42419;48.760;2.322;2022-07-30T13:28:24;2.80;;;1.60;;
56517;SDS011;42419;48.760;2.322;2022-07-30T13:30:50;2.00;;;1.70;;
56517;SDS011;42419;48.760;2.322;2022-07-30T13:33:16;1.63;;;1.50;;
56517;SDS011;42419;48.760;2.322;2022-07-30T13:35:41;2.43;;;1.63;;
56517;SDS011;42419;48.760;2.322;2022-07-30T13:38:07;1.67;;;1.50;;
56517;SDS011;42419;48.760;2.322;2022-07-30T13:40:35;1.30;;;1.20;;
56517;SDS011;42419;48.760;2.322;2022-07-30T13:43:03;1.40;;;1.30;;
56517;SDS011;42419;48.760;2.322;2022-07-30T13:45:31;2.33;;;1.60;;
56517;SDS011;42419;48.760;2.322;2022-07-30T13:48:00;1.77;;;1.67;;
56517;SDS011;42419;48.760;2.322;2022-07-30T13:50:25;2.23;;;1.50;;
56517;SDS011;42419;48.760;2.322;2022-07-30T13:52:51;1.60;;;1.50;;
56517;SDS011;42419;48.760;2.322;2022-07-30T13:55:16;1.67;;;1.53;;
56517;SDS011;42419;48.760;2.322;2022-07-30T13:57:42;1.50;;;1.37;;
56517;SDS011;42419;48.760;2.322;2022-07-30T14:00:07;1.73;;;1.37;;
56517;SDS011;42419;48.760;2.322;2022-07-30T14:02:33;1.60;;;1.40;;
56517;SDS011;42419;48.760;2.322;2022-07-30T14:04:59;1.70;;;1.57;;
56517;SDS011;42419;48.760;2.322;2022-07-30T14:07:31;2.50;;;2.10;;
56517;SDS011;42419;48.760;2.322;2022-07-30T14:09:57;1.93;;;1.73;;
56517;SDS011;42419;48.760;2.322;2022-07-30T14:12:22;1.77;;;1.67;;
56517;SDS011;42419;48.760;2.322;2022-07-30T14:14:48;2.23;;;2.03;;
56517;SDS011;42419;48.760;2.322;2022-07-30T14:17:13;2.20;;;1.80;;
56517;SDS011;42419;48.760;2.322;2022-07-30T14:19:38;1.80;;;1.70;;
56517;SDS011;42419;48.760;2.322;2022-07-30T14:22:03;2.73;;;2.07;;
56517;SDS011;42419;48.760;2.322;2022-07-30T14:24:29;1.97;;;1.73;;
56517;SDS011;42419;48.760;2.322;2022-07-30T14:26:54;1.73;;;1.40;;
56517;SDS011;42419;48.760;2.322;2022-07-30T14:29:20;4.20;;;2.00;;
56517;SDS011;42419;48.760;2.322;2022-07-30T14:31:45;2.33;;;1.60;;
56517;SDS011;42419;48.760;2.322;2022-07-30T14:34:10;1.60;;;1.50;;
56517;SDS011;42419;48.760;2.322;2022-07-30T14:36:36;2.13;;;1.77;;
56517;SDS011;42419;48.760;2.322;2022-07-30T14:39:07;2.37;;;2.17;;
56517;SDS011;42419;48.760;2.322;2022-07-30T14:41:33;3.10;;;2.40;;
56517;SDS011;42419;48.760;2.322;2022-07-30T14:44:01;2.10;;;1.90;;
56517;SDS011;42419;48.760;2.322;2022-07-30T14:46:26;2.10;;;1.83;;
56517;SDS011;42419;48.760;2.322;2022-07-30T14:48:52;4.30;;;2.10;;
56517;SDS011;42419;48.760;2.322;2022-07-30T14:51:17;1.80;;;1.70;;
56517;SDS011;42419;48.760;2.322;2022-07-30T14:53:44;2.10;;;1.87;;
56517;SDS011;42419;48.760;2.322;2022-07-30T14:56:09;1.97;;;1.80;;
56517;SDS011;42419;48.760;2.322;2022-07-30T14:58:34;1.70;;;1.60;;
56517;SDS011;42419;48.760;2.322;2022-07-30T15:01:00;2.00;;;1.80;;
56517;SDS011;42419;48.760;2.322;2022-07-30T15:03:28;2.50;;;1.80;;
56517;SDS011;42419;48.760;2.322;2022-07-30T15:05:53;1.80;;;1.60;;
56517;SDS011;42419;48.760;2.322;2022-07-30T15:08:18;2.10;;;1.90;;
56517;SDS011;42419;48.760;2.322;2022-07-30T15:10:44;2.77;;;1.80;;
56517;SDS011;42419;48.760;2.322;2022-07-30T15:13:10;3.10;;;2.70;;
56517;SDS011;42419;48.760;2.322;2022-07-30T15:15:35;2.97;;;2.70;;
56517;SDS011;42419;48.760;2.322;2022-07-30T15:18:00;3.57;;;3.27;;
56517;SDS011;42419;48.760;2.322;2022-07-30T15:20:26;3.33;;;2.60;;
56517;SDS011;42419;48.760;2.322;2022-07-30T15:22:53;2.43;;;2.23;;
56517;SDS011;42419;48.760;2.322;2022-07-30T15:25:22;2.47;;;2.27;;
56517;SDS011;42419;48.760;2.322;2022-07-30T15:27:48;3.00;;;2.50;;
56517;SDS011;42419;48.760;2.322;2022-07-30T15:30:16;2.17;;;1.97;;
56517;SDS011;42419;48.760;2.322;2022-07-30T15:32:43;2.20;;;2.00;;